sensor_id;sensor_type;location;lat;lon;timestamp;P1;durP1;ratioP1;P2;durP2;ratioP2
8001;SDS011;4046;48.774;8.732;2023-12-20T00:02:40;34.90;;;32.30;;
8001;SDS011;4046;48.774;8.732;2023-12-20T00:05:32;35.10;;;32.40;;
8001;SDS011;4046;48.774;8.732;2023-12-20T00:07:58;34.57;;;32.07;;
8001;SDS011;4046;48.774;8.732;2023-12-20T00:10:24;36.20;;;33.60;;
8001;SDS011;4046;48.774;8.732;2023-12-20T00:12:50;35.33;;;32.67;;
8001;SDS011;4046;48.774;8.732;2023-12-20T00:15:16;33.73;;;31.33;;
8001;SDS011;4046;48.774;8.732;2023-12-20T00:17:41;35.50;;;32.90;;
8001;SDS011;4046;48.774;8.732;2023-12-20T00:20:07;35.73;;;32.93;;
8001;SDS011;4046;48.774;8.732;2023-12-20T00:22:33;37.27;;;34.30;;
8001;SDS011;4046;48.774;8.732;2023-12-20T00:31:25;36.80;;;34.00;;
8001;SDS011;4046;48.774;8.732;2023-12-20T00:34:29;36.10;;;33.27;;
8001;SDS011;4046;48.774;8.732;2023-12-20T00:36:55;38.37;;;35.37;;
8001;SDS011;4046;48.774;8.732;2023-12-20T00:39:21;36.03;;;33.13;;
8001;SDS011;4046;48.774;8.732;2023-12-20T00:41:46;36.77;;;33.83;;
8001;SDS011;4046;48.774;8.732;2023-12-20T00:44:12;35.47;;;32.77;;
8001;SDS011;4046;48.774;8.732;2023-12-20T00:46:38;37.00;;;34.07;;
8001;SDS011;4046;48.774;8.732;2023-12-20T00:49:03;33.87;;;31.30;;
8001;SDS011;4046;48.774;8.732;2023-12-20T00:51:29;33.63;;;31.13;;
8001;SDS011;4046;48.774;8.732;2023-12-20T00:53:55;31.93;;;29.43;;
8001;SDS011;4046;48.774;8.732;2023-12-20T00:56:21;32.70;;;30.20;;
8001;SDS011;4046;48.774;8.732;2023-12-20T00:58:46;30.80;;;28.50;;
8001;SDS011;4046;48.774;8.732;2023-12-20T01:01:21;30.43;;;28.13;;
8001;SDS011;4046;48.774;8.732;2023-12-20T01:04:33;30.63;;;28.33;;
8001;SDS011;4046;48.774;8.732;2023-12-20T01:07:46;30.30;;;28.10;;
8001;SDS011;4046;48.774;8.732;2023-12-20T01:10:42;29.23;;;26.90;;
8001;SDS011;4046;48.774;8.732;2023-12-20T01:17:01;28.03;;;25.93;;
8001;SDS011;4046;48.774;8.732;2023-12-20T01:20:30;28.20;;;26.10;;
8001;SDS011;4046;48.774;8.732;2023-12-20T01:23:27;26.83;;;24.83;;
8001;SDS011;4046;48.774;8.732;2023-12-20T01:27:00;27.00;;;24.97;;
8001;SDS011;4046;48.774;8.732;2023-12-20T01:30:00;24.77;;;22.87;;
8001;SDS011;4046;48.774;8.732;2023-12-20T01:32:26;25.33;;;23.50;;
8001;SDS011;4046;48.774;8.732;2023-12-20T01:34:51;24.37;;;22.50;;
8001;SDS011;4046;48.774;8.732;2023-12-20T01:37:17;25.03;;;23.10;;
8001;SDS011;4046;48.774;8.732;2023-12-20T01:39:43;24.83;;;22.93;;
8001;SDS011;4046;48.774;8.732;2023-12-20T01:42:09;25.00;;;23.10;;
8001;SDS011;4046;48.774;8.732;2023-12-20T01:44:34;24.23;;;22.40;;
8001;SDS011;4046;48.774;8.732;2023-12-20T01:47:00;24.30;;;22.50;;
8001;SDS011;4046;48.774;8.732;2023-12-20T01:49:26;23.50;;;21.67;;
8001;SDS011;4046;48.774;8.732;2023-12-20T01:51:53;24.70;;;22.90;;
8001;SDS011;4046;48.774;8.732;2023-12-20T01:54:18;22.70;;;21.00;;
8001;SDS011;4046;48.774;8.732;2023-12-20T01:56:45;22.47;;;20.80;;
8001;SDS011;4046;48.774;8.732;2023-12-20T01:59:11;22.77;;;21.07;;
8001;SDS011;4046;48.774;8.732;2023-12-20T02:01:38;22.20;;;20.60;;
8001;SDS011;4046;48.774;8.732;2023-12-20T02:04:04;21.83;;;20.23;;
8001;SDS011;4046;48.774;8.732;2023-12-20T02:06:30;20.77;;;19.20;;
8001;SDS011;4046;48.774;8.732;2023-12-20T02:09:14;21.27;;;19.67;;
8001;SDS011;4046;48.774;8.732;2023-12-20T02:15:27;20.20;;;18.70;;
8001;SDS011;4046;48.774;8.732;2023-12-20T02:18:23;19.13;;;17.73;;
8001;SDS011;4046;48.774;8.732;2023-12-20T02:21:38;18.67;;;17.27;;
8001;SDS011;4046;48.774;8.732;2023-12-20T02:24:04;17.70;;;16.50;;
8001;SDS011;4046;48.774;8.732;2023-12-20T02:26:31;18.20;;;16.90;;
8001;SDS011;4046;48.774;8.732;2023-12-20T02:28:58;19.03;;;17.53;;
8001;SDS011;4046;48.774;8.732;2023-12-20T02:31:25;18.33;;;16.93;;
8001;SDS011;4046;48.774;8.732;2023-12-20T02:33:50;17.87;;;16.47;;
8001;SDS011;4046;48.774;8.732;2023-12-20T02:36:16;18.30;;;16.90;;
8001;SDS011;4046;48.774;8.732;2023-12-20T02:38:42;17.97;;;16.67;;
8001;SDS011;4046;48.774;8.732;2023-12-20T02:41:08;16.83;;;15.67;;
8001;SDS011;4046;48.774;8.732;2023-12-20T02:43:33;17.30;;;16.00;;
8001;SDS011;4046;48.774;8.732;2023-12-20T02:45:59;16.87;;;15.67;;
8001;SDS011;4046;48.774;8.732;2023-12-20T02:48:25;15.70;;;14.60;;
8001;SDS011;4046;48.774;8.732;2023-12-20T02:50:50;15.30;;;14.20;;
8001;SDS011;4046;48.774;8.732;2023-12-20T02:53:16;16.90;;;15.60;;
8001;SDS011;4046;48.774;8.732;2023-12-20T02:55:42;16.20;;;15.10;;
8001;SDS011;4046;48.774;8.732;2023-12-20T02:58:08;15.67;;;14.53;;
8001;SDS011;4046;48.774;8.732;2023-12-20T03:00:34;15.63;;;14.43;;
8001;SDS011;4046;48.774;8.732;2023-12-20T03:02:59;14.33;;;13.30;;
8001;SDS011;4046;48.774;8.732;2023-12-20T03:05:25;13.90;;;12.90;;
8001;SDS011;4046;48.774;8.732;2023-12-20T03:07:51;13.80;;;12.83;;
8001;SDS011;4046;48.774;8.732;2023-12-20T03:10:18;14.40;;;13.30;;
8001;SDS011;4046;48.774;8.732;2023-12-20T03:12:53;13.90;;;12.90;;
8001;SDS011;4046;48.774;8.732;2023-12-20T03:18:48;13.97;;;13.00;;
8001;SDS011;4046;48.774;8.732;2023-12-20T03:21:42;12.73;;;11.83;;
8001;SDS011;4046;48.774;8.732;2023-12-20T03:24:46;12.40;;;11.50;;
8001;SDS011;4046;48.774;8.732;2023-12-20T03:28:06;12.63;;;11.73;;
8001;SDS011;4046;48.774;8.732;2023-12-20T03:30:52;13.40;;;12.50;;
8001;SDS011;4046;48.774;8.732;2023-12-20T03:34:17;13.20;;;12.30;;
8001;SDS011;4046;48.774;8.732;2023-12-20T03:37:00;12.10;;;11.20;;
8001;SDS011;4046;48.774;8.732;2023-12-20T03:42:58;11.33;;;10.53;;
8001;SDS011;4046;48.774;8.732;2023-12-20T03:45:37;11.60;;;10.80;;
8001;SDS011;4046;48.774;8.732;2023-12-20T03:51:17;10.20;;;9.50;;
8001;SDS011;4046;48.774;8.732;2023-12-20T03:53:42;10.80;;;10.00;;
8001;SDS011;4046;48.774;8.732;2023-12-20T03:56:08;11.07;;;10.30;;
8001;SDS011;4046;48.774;8.732;2023-12-20T03:58:34;11.00;;;10.20;;
8001;SDS011;4046;48.774;8.732;2023-12-20T04:04:33;10.10;;;9.40;;
8001;SDS011;4046;48.774;8.732;2023-12-20T04:10:20;9.33;;;8.73;;
8001;SDS011;4046;48.774;8.732;2023-12-20T04:13:16;10.00;;;9.30;;
8001;SDS011;4046;48.774;8.732;2023-12-20T04:16:05;9.20;;;8.60;;
8001;SDS011;4046;48.774;8.732;2023-12-20T04:18:31;9.33;;;8.73;;
8001;SDS011;4046;48.774;8.732;2023-12-20T04:20:57;8.67;;;8.07;;
8001;SDS011;4046;48.774;8.732;2023-12-20T04:23:22;9.27;;;8.67;;
8001;SDS011;4046;48.774;8.732;2023-12-20T04:25:48;8.70;;;8.10;;
8001;SDS011;4046;48.774;8.732;2023-12-20T04:28:14;9.00;;;8.30;;
8001;SDS011;4046;48.774;8.732;2023-12-20T04:30:39;8.47;;;7.90;;
8001;SDS011;4046;48.774;8.732;2023-12-20T04:33:05;8.30;;;7.80;;
8001;SDS011;4046;48.774;8.732;2023-12-20T04:35:31;7.93;;;7.43;;
8001;SDS011;4046;48.774;8.732;2023-12-20T04:38:02;8.00;;;7.50;;
8001;SDS011;4046;48.774;8.732;2023-12-20T04:41:07;7.83;;;7.30;;
8001;SDS011;4046;48.774;8.732;2023-12-20T04:44:07;7.30;;;6.80;;
8001;SDS011;4046;48.774;8.732;2023-12-20T04:47:07;8.27;;;7.67;;
8001;SDS011;4046;48.774;8.732;2023-12-20T04:49:58;8.07;;;7.47;;
8001;SDS011;4046;48.774;8.732;2023-12-20T04:52:24;7.13;;;6.63;;
8001;SDS011;4046;48.774;8.732;2023-12-20T04:54:50;7.07;;;6.57;;
8001;SDS011;4046;48.774;8.732;2023-12-20T04:57:16;7.80;;;7.30;;
8001;SDS011;4046;48.774;8.732;2023-12-20T04:59:41;7.77;;;7.27;;
8001;SDS011;4046;48.774;8.732;2023-12-20T05:02:07;7.43;;;6.93;;
8001;SDS011;4046;48.774;8.732;2023-12-20T05:04:33;7.37;;;6.87;;
8001;SDS011;4046;48.774;8.732;2023-12-20T05:06:58;6.40;;;6.00;;
8001;SDS011;4046;48.774;8.732;2023-12-20T05:09:29;6.63;;;6.23;;
8001;SDS011;4046;48.774;8.732;2023-12-20T05:12:39;6.53;;;6.13;;
8001;SDS011;4046;48.774;8.732;2023-12-20T05:15:08;5.83;;;5.43;;
8001;SDS011;4046;48.774;8.732;2023-12-20T05:17:34;6.57;;;6.17;;
8001;SDS011;4046;48.774;8.732;2023-12-20T05:20:00;6.10;;;5.70;;
8001;SDS011;4046;48.774;8.732;2023-12-20T05:22:26;6.20;;;5.80;;
8001;SDS011;4046;48.774;8.732;2023-12-20T05:24:59;6.00;;;5.60;;
8001;SDS011;4046;48.774;8.732;2023-12-20T05:28:15;5.77;;;5.47;;
8001;SDS011;4046;48.774;8.732;2023-12-20T05:31:04;5.90;;;5.50;;
8001;SDS011;4046;48.774;8.732;2023-12-20T05:33:59;5.77;;;5.47;;
8001;SDS011;4046;48.774;8.732;2023-12-20T05:37:11;5.90;;;5.50;;
8001;SDS011;4046;48.774;8.732;2023-12-20T05:39:40;5.27;;;4.97;;
8001;SDS011;4046;48.774;8.732;2023-12-20T05:42:05;5.80;;;5.40;;
8001;SDS011;4046;48.774;8.732;2023-12-20T05:44:31;4.90;;;4.60;;
8001;SDS011;4046;48.774;8.732;2023-12-20T05:46:57;6.00;;;5.60;;
8001;SDS011;4046;48.774;8.732;2023-12-20T05:49:54;5.00;;;4.70;;
8001;SDS011;4046;48.774;8.732;2023-12-20T05:52:38;5.40;;;5.10;;
8001;SDS011;4046;48.774;8.732;2023-12-20T05:55:26;4.73;;;4.43;;
8001;SDS011;4046;48.774;8.732;2023-12-20T05:58:19;5.07;;;4.77;;
8001;SDS011;4046;48.774;8.732;2023-12-20T06:01:17;4.47;;;4.17;;
8001;SDS011;4046;48.774;8.732;2023-12-20T06:04:15;4.47;;;4.27;;
8001;SDS011;4046;48.774;8.732;2023-12-20T06:07:02;3.90;;;3.70;;
8001;SDS011;4046;48.774;8.732;2023-12-20T06:09:38;4.30;;;4.10;;
8001;SDS011;4046;48.774;8.732;2023-12-20T06:12:23;4.67;;;4.37;;
8001;SDS011;4046;48.774;8.732;2023-12-20T06:18:54;4.40;;;4.10;;
8001;SDS011;4046;48.774;8.732;2023-12-20T06:21:55;4.60;;;4.30;;
8001;SDS011;4046;48.774;8.732;2023-12-20T06:27:56;3.83;;;3.63;;
8001;SDS011;4046;48.774;8.732;2023-12-20T06:30:21;4.00;;;3.70;;
8001;SDS011;4046;48.774;8.732;2023-12-20T06:32:48;4.00;;;3.80;;
8001;SDS011;4046;48.774;8.732;2023-12-20T06:35:13;3.70;;;3.50;;
8001;SDS011;4046;48.774;8.732;2023-12-20T06:37:39;3.80;;;3.60;;
8001;SDS011;4046;48.774;8.732;2023-12-20T06:40:08;3.77;;;3.50;;
8001;SDS011;4046;48.774;8.732;2023-12-20T06:42:35;3.63;;;3.43;;
8001;SDS011;4046;48.774;8.732;2023-12-20T06:45:19;3.43;;;3.23;;
8001;SDS011;4046;48.774;8.732;2023-12-20T06:48:34;3.50;;;3.30;;
8001;SDS011;4046;48.774;8.732;2023-12-20T06:51:27;3.60;;;3.40;;
8001;SDS011;4046;48.774;8.732;2023-12-20T06:54:25;3.40;;;3.20;;
8001;SDS011;4046;48.774;8.732;2023-12-20T06:57:00;3.23;;;3.03;;
8001;SDS011;4046;48.774;8.732;2023-12-20T06:59:56;3.10;;;2.90;;
8001;SDS011;4046;48.774;8.732;2023-12-20T07:02:36;3.33;;;3.13;;
8001;SDS011;4046;48.774;8.732;2023-12-20T07:05:25;3.40;;;3.20;;
8001;SDS011;4046;48.774;8.732;2023-12-20T07:08:24;3.30;;;3.10;;
8001;SDS011;4046;48.774;8.732;2023-12-20T07:11:16;3.07;;;2.87;;
8001;SDS011;4046;48.774;8.732;2023-12-20T07:14:12;2.87;;;2.73;;
8001;SDS011;4046;48.774;8.732;2023-12-20T07:16:55;3.13;;;2.93;;
8001;SDS011;4046;48.774;8.732;2023-12-20T07:19:22;2.90;;;2.73;;
8001;SDS011;4046;48.774;8.732;2023-12-20T07:21:48;2.80;;;2.60;;
8001;SDS011;4046;48.774;8.732;2023-12-20T07:24:14;2.73;;;2.57;;
8001;SDS011;4046;48.774;8.732;2023-12-20T07:26:40;2.67;;;2.50;;
8001;SDS011;4046;48.774;8.732;2023-12-20T07:29:06;3.00;;;2.80;;
8001;SDS011;4046;48.774;8.732;2023-12-20T07:31:31;2.60;;;2.50;;
8001;SDS011;4046;48.774;8.732;2023-12-20T07:33:57;2.43;;;2.33;;
8001;SDS011;4046;48.774;8.732;2023-12-20T07:36:23;2.40;;;2.30;;
8001;SDS011;4046;48.774;8.732;2023-12-20T07:38:49;3.13;;;2.93;;
8001;SDS011;4046;48.774;8.732;2023-12-20T07:41:14;2.37;;;2.27;;
8001;SDS011;4046;48.774;8.732;2023-12-20T07:43:46;2.60;;;2.50;;
8001;SDS011;4046;48.774;8.732;2023-12-20T07:46:12;2.40;;;2.30;;
8001;SDS011;4046;48.774;8.732;2023-12-20T07:48:38;2.60;;;2.50;;
8001;SDS011;4046;48.774;8.732;2023-12-20T07:51:18;2.17;;;2.07;;
8001;SDS011;4046;48.774;8.732;2023-12-20T07:54:25;2.23;;;2.13;;
8001;SDS011;4046;48.774;8.732;2023-12-20T07:57:20;2.33;;;2.23;;
8001;SDS011;4046;48.774;8.732;2023-12-20T08:00:18;2.33;;;2.23;;
8001;SDS011;4046;48.774;8.732;2023-12-20T08:03:16;2.20;;;2.10;;
8001;SDS011;4046;48.774;8.732;2023-12-20T08:06:22;1.93;;;1.83;;
8001;SDS011;4046;48.774;8.732;2023-12-20T08:09:34;2.00;;;1.90;;
8001;SDS011;4046;48.774;8.732;2023-12-20T08:12:41;2.20;;;2.10;;
8001;SDS011;4046;48.774;8.732;2023-12-20T08:15:38;2.00;;;1.90;;
8001;SDS011;4046;48.774;8.732;2023-12-20T08:18:10;2.13;;;2.03;;
8001;SDS011;4046;48.774;8.732;2023-12-20T08:21:11;1.90;;;1.80;;
8001;SDS011;4046;48.774;8.732;2023-12-20T08:23:42;1.90;;;1.80;;
8001;SDS011;4046;48.774;8.732;2023-12-20T08:26:35;2.10;;;2.00;;
8001;SDS011;4046;48.774;8.732;2023-12-20T08:29:16;2.20;;;2.10;;
8001;SDS011;4046;48.774;8.732;2023-12-20T08:32:15;1.83;;;1.73;;
8001;SDS011;4046;48.774;8.732;2023-12-20T08:35:09;2.00;;;1.90;;
8001;SDS011;4046;48.774;8.732;2023-12-20T08:38:39;1.67;;;1.57;;
8001;SDS011;4046;48.774;8.732;2023-12-20T08:41:35;1.70;;;1.60;;
8001;SDS011;4046;48.774;8.732;2023-12-20T08:44:31;1.87;;;1.77;;
8001;SDS011;4046;48.774;8.732;2023-12-20T08:48:12;1.57;;;1.47;;
8001;SDS011;4046;48.774;8.732;2023-12-20T08:51:13;1.77;;;1.67;;
8001;SDS011;4046;48.774;8.732;2023-12-20T08:54:05;1.70;;;1.60;;
8001;SDS011;4046;48.774;8.732;2023-12-20T08:56:33;2.03;;;1.60;;
8001;SDS011;4046;48.774;8.732;2023-12-20T08:58:59;1.90;;;1.80;;
8001;SDS011;4046;48.774;8.732;2023-12-20T09:01:25;1.73;;;1.63;;
8001;SDS011;4046;48.774;8.732;2023-12-20T09:03:53;1.80;;;1.70;;
8001;SDS011;4046;48.774;8.732;2023-12-20T09:06:36;1.30;;;1.20;;
8001;SDS011;4046;48.774;8.732;2023-12-20T09:12:51;5.27;;;1.30;;
8001;SDS011;4046;48.774;8.732;2023-12-20T09:15:24;4.13;;;1.43;;
8001;SDS011;4046;48.774;8.732;2023-12-20T09:17:51;1.50;;;1.20;;
8001;SDS011;4046;48.774;8.732;2023-12-20T09:20:16;2.00;;;1.20;;
8001;SDS011;4046;48.774;8.732;2023-12-20T09:22:42;3.43;;;1.20;;
8001;SDS011;4046;48.774;8.732;2023-12-20T09:25:13;3.10;;;1.03;;
8001;SDS011;4046;48.774;8.732;2023-12-20T09:28:11;2.43;;;1.20;;
8001;SDS011;4046;48.774;8.732;2023-12-20T09:30:37;1.50;;;1.03;;
8001;SDS011;4046;48.774;8.732;2023-12-20T09:33:05;1.40;;;1.03;;
8001;SDS011;4046;48.774;8.732;2023-12-20T09:35:32;1.33;;;1.20;;
8001;SDS011;4046;48.774;8.732;2023-12-20T09:38:22;1.90;;;0.90;;
8001;SDS011;4046;48.774;8.732;2023-12-20T09:40:48;1.67;;;1.10;;
8001;SDS011;4046;48.774;8.732;2023-12-20T09:43:14;2.40;;;1.30;;
8001;SDS011;4046;48.774;8.732;2023-12-20T09:45:44;2.33;;;1.30;;
8001;SDS011;4046;48.774;8.732;2023-12-20T09:48:12;2.13;;;1.00;;
8001;SDS011;4046;48.774;8.732;2023-12-20T09:50:40;1.30;;;1.00;;
8001;SDS011;4046;48.774;8.732;2023-12-20T09:53:15;2.53;;;1.10;;
8001;SDS011;4046;48.774;8.732;2023-12-20T10:02:12;1.97;;;1.10;;
8001;SDS011;4046;48.774;8.732;2023-12-20T10:05:26;1.40;;;1.00;;
8001;SDS011;4046;48.774;8.732;2023-12-20T10:08:34;1.30;;;0.90;;
8001;SDS011;4046;48.774;8.732;2023-12-20T10:11:49;1.47;;;1.00;;
8001;SDS011;4046;48.774;8.732;2023-12-20T10:14:49;2.03;;;1.00;;
8001;SDS011;4046;48.774;8.732;2023-12-20T10:17:16;1.40;;;1.00;;
8001;SDS011;4046;48.774;8.732;2023-12-20T10:19:42;1.30;;;0.97;;
8001;SDS011;4046;48.774;8.732;2023-12-20T10:22:08;1.30;;;1.17;;
8001;SDS011;4046;48.774;8.732;2023-12-20T10:24:35;1.30;;;0.90;;
8001;SDS011;4046;48.774;8.732;2023-12-20T10:27:02;1.30;;;0.90;;
8001;SDS011;4046;48.774;8.732;2023-12-20T10:29:59;1.30;;;1.00;;
8001;SDS011;4046;48.774;8.732;2023-12-20T10:32:26;1.50;;;1.10;;
8001;SDS011;4046;48.774;8.732;2023-12-20T10:34:53;1.30;;;1.00;;
8001;SDS011;4046;48.774;8.732;2023-12-20T10:37:19;1.30;;;1.00;;
8001;SDS011;4046;48.774;8.732;2023-12-20T10:39:48;1.27;;;1.00;;
8001;SDS011;4046;48.774;8.732;2023-12-20T10:42:17;1.37;;;1.10;;
8001;SDS011;4046;48.774;8.732;2023-12-20T10:44:52;1.20;;;0.80;;
8001;SDS011;4046;48.774;8.732;2023-12-20T10:47:30;1.30;;;1.10;;
8001;SDS011;4046;48.774;8.732;2023-12-20T10:50:19;1.30;;;1.00;;
8001;SDS011;4046;48.774;8.732;2023-12-20T10:52:46;1.50;;;1.03;;
8001;SDS011;4046;48.774;8.732;2023-12-20T10:55:12;1.50;;;1.17;;
8001;SDS011;4046;48.774;8.732;2023-12-20T10:57:38;1.60;;;1.10;;
8001;SDS011;4046;48.774;8.732;2023-12-20T11:00:05;1.40;;;1.30;;
8001;SDS011;4046;48.774;8.732;2023-12-20T11:02:39;1.50;;;1.37;;
8001;SDS011;4046;48.774;8.732;2023-12-20T11:08:33;1.20;;;0.97;;
8001;SDS011;4046;48.774;8.732;2023-12-20T11:11:34;1.40;;;1.23;;
8001;SDS011;4046;48.774;8.732;2023-12-20T11:14:29;1.30;;;1.10;;
8001;SDS011;4046;48.774;8.732;2023-12-20T11:17:18;1.80;;;1.40;;
8001;SDS011;4046;48.774;8.732;2023-12-20T11:23:14;1.77;;;1.13;;
8001;SDS011;4046;48.774;8.732;2023-12-20T11:25:52;1.50;;;1.17;;
8001;SDS011;4046;48.774;8.732;2023-12-20T11:28:23;1.30;;;1.17;;
8001;SDS011;4046;48.774;8.732;2023-12-20T11:30:54;2.13;;;1.70;;
8001;SDS011;4046;48.774;8.732;2023-12-20T11:33:44;1.97;;;1.60;;
8001;SDS011;4046;48.774;8.732;2023-12-20T11:36:20;3.90;;;1.33;;
8001;SDS011;4046;48.774;8.732;2023-12-20T11:38:57;2.37;;;1.30;;
8001;SDS011;4046;48.774;8.732;2023-12-20T11:41:23;1.40;;;1.10;;
8001;SDS011;4046;48.774;8.732;2023-12-20T11:43:49;1.60;;;1.40;;
8001;SDS011;4046;48.774;8.732;2023-12-20T11:46:33;1.70;;;1.10;;
8001;SDS011;4046;48.774;8.732;2023-12-20T11:49:15;1.87;;;1.30;;
8001;SDS011;4046;48.774;8.732;2023-12-20T11:52:12;2.33;;;1.33;;
8001;SDS011;4046;48.774;8.732;2023-12-20T11:54:41;1.80;;;1.50;;
8001;SDS011;4046;48.774;8.732;2023-12-20T11:57:06;1.57;;;1.43;;
8001;SDS011;4046;48.774;8.732;2023-12-20T11:59:32;1.40;;;1.20;;
8001;SDS011;4046;48.774;8.732;2023-12-20T12:01:58;1.40;;;1.20;;
8001;SDS011;4046;48.774;8.732;2023-12-20T12:04:45;2.10;;;1.10;;
8001;SDS011;4046;48.774;8.732;2023-12-20T12:08:12;1.40;;;1.20;;
8001;SDS011;4046;48.774;8.732;2023-12-20T12:10:42;1.50;;;1.40;;
8001;SDS011;4046;48.774;8.732;2023-12-20T12:13:09;1.57;;;1.43;;
8001;SDS011;4046;48.774;8.732;2023-12-20T12:15:42;1.60;;;1.30;;
8001;SDS011;4046;48.774;8.732;2023-12-20T12:18:18;1.90;;;1.17;;
8001;SDS011;4046;48.774;8.732;2023-12-20T12:20:49;1.70;;;1.50;;
8001;SDS011;4046;48.774;8.732;2023-12-20T12:23:45;1.60;;;1.10;;
8001;SDS011;4046;48.774;8.732;2023-12-20T12:26:10;1.50;;;1.40;;
8001;SDS011;4046;48.774;8.732;2023-12-20T12:28:47;1.57;;;1.47;;
8001;SDS011;4046;48.774;8.732;2023-12-20T12:31:54;1.70;;;1.30;;
8001;SDS011;4046;48.774;8.732;2023-12-20T12:34:35;1.40;;;1.30;;
8001;SDS011;4046;48.774;8.732;2023-12-20T12:37:01;1.40;;;1.20;;
8001;SDS011;4046;48.774;8.732;2023-12-20T12:39:29;1.57;;;1.40;;
8001;SDS011;4046;48.774;8.732;2023-12-20T12:41:56;1.70;;;1.60;;
8001;SDS011;4046;48.774;8.732;2023-12-20T12:44:51;1.60;;;1.50;;
8001;SDS011;4046;48.774;8.732;2023-12-20T12:47:17;1.50;;;1.33;;
8001;SDS011;4046;48.774;8.732;2023-12-20T12:49:43;1.40;;;1.20;;
8001;SDS011;4046;48.774;8.732;2023-12-20T12:52:10;1.90;;;1.80;;
8001;SDS011;4046;48.774;8.732;2023-12-20T12:55:03;1.53;;;1.40;;
8001;SDS011;4046;48.774;8.732;2023-12-20T12:58:14;1.70;;;1.40;;
8001;SDS011;4046;48.774;8.732;2023-12-20T13:00:40;1.47;;;1.37;;
8001;SDS011;4046;48.774;8.732;2023-12-20T13:03:13;1.47;;;1.37;;
8001;SDS011;4046;48.774;8.732;2023-12-20T13:05:39;1.40;;;1.30;;
8001;SDS011;4046;48.774;8.732;2023-12-20T13:08:05;2.40;;;1.70;;
8001;SDS011;4046;48.774;8.732;2023-12-20T13:10:36;1.80;;;1.50;;
8001;SDS011;4046;48.774;8.732;2023-12-20T13:13:02;1.60;;;1.50;;
8001;SDS011;4046;48.774;8.732;2023-12-20T13:15:29;2.43;;;1.90;;
8001;SDS011;4046;48.774;8.732;2023-12-20T13:17:55;2.37;;;1.93;;
8001;SDS011;4046;48.774;8.732;2023-12-20T13:20:21;2.47;;;1.80;;
8001;SDS011;4046;48.774;8.732;2023-12-20T13:22:47;1.90;;;1.50;;
8001;SDS011;4046;48.774;8.732;2023-12-20T13:25:22;1.70;;;1.60;;
8001;SDS011;4046;48.774;8.732;2023-12-20T13:27:48;2.73;;;1.40;;
8001;SDS011;4046;48.774;8.732;2023-12-20T13:30:20;2.43;;;1.73;;
8001;SDS011;4046;48.774;8.732;2023-12-20T13:33:13;1.50;;;1.40;;
8001;SDS011;4046;48.774;8.732;2023-12-20T13:35:42;1.60;;;1.40;;
8001;SDS011;4046;48.774;8.732;2023-12-20T13:38:36;1.40;;;1.20;;
8001;SDS011;4046;48.774;8.732;2023-12-20T13:47:59;1.40;;;1.20;;
8001;SDS011;4046;48.774;8.732;2023-12-20T13:50:38;1.57;;;1.47;;
8001;SDS011;4046;48.774;8.732;2023-12-20T13:53:07;1.60;;;1.37;;
8001;SDS011;4046;48.774;8.732;2023-12-20T14:01:14;3.73;;;1.30;;
8001;SDS011;4046;48.774;8.732;2023-12-20T14:03:43;1.73;;;1.60;;
8001;SDS011;4046;48.774;8.732;2023-12-20T14:06:19;1.40;;;1.30;;
8001;SDS011;4046;48.774;8.732;2023-12-20T14:09:02;1.50;;;1.40;;
8001;SDS011;4046;48.774;8.732;2023-12-20T14:11:34;1.67;;;1.30;;
8001;SDS011;4046;48.774;8.732;2023-12-20T14:14:39;1.70;;;1.60;;
8001;SDS011;4046;48.774;8.732;2023-12-20T14:18:17;1.77;;;1.67;;
8001;SDS011;4046;48.774;8.732;2023-12-20T14:20:43;1.80;;;1.40;;
8001;SDS011;4046;48.774;8.732;2023-12-20T14:23:23;4.20;;;1.97;;
8001;SDS011;4046;48.774;8.732;2023-12-20T14:29:25;3.80;;;2.30;;
8001;SDS011;4046;48.774;8.732;2023-12-20T14:31:52;2.67;;;2.30;;
8001;SDS011;4046;48.774;8.732;2023-12-20T14:34:18;3.10;;;2.60;;
8001;SDS011;4046;48.774;8.732;2023-12-20T14:36:44;3.70;;;3.40;;
8001;SDS011;4046;48.774;8.732;2023-12-20T14:39:09;3.10;;;2.80;;
8001;SDS011;4046;48.774;8.732;2023-12-20T14:41:38;3.40;;;3.10;;
8001;SDS011;4046;48.774;8.732;2023-12-20T14:44:06;3.33;;;3.03;;
8001;SDS011;4046;48.774;8.732;2023-12-20T14:49:21;3.47;;;3.17;;
8001;SDS011;4046;48.774;8.732;2023-12-20T14:51:47;4.80;;;4.00;;
8001;SDS011;4046;48.774;8.732;2023-12-20T14:54:29;4.20;;;3.63;;
8001;SDS011;4046;48.774;8.732;2023-12-20T14:56:55;4.53;;;3.87;;
8001;SDS011;4046;48.774;8.732;2023-12-20T14:59:22;4.67;;;3.53;;
8001;SDS011;4046;48.774;8.732;2023-12-20T15:01:48;3.93;;;3.40;;
8001;SDS011;4046;48.774;8.732;2023-12-20T15:04:33;4.80;;;3.80;;
8001;SDS011;4046;48.774;8.732;2023-12-20T15:07:45;4.17;;;3.77;;
8001;SDS011;4046;48.774;8.732;2023-12-20T15:10:14;4.73;;;4.23;;
8001;SDS011;4046;48.774;8.732;2023-12-20T15:12:45;7.10;;;5.20;;
8001;SDS011;4046;48.774;8.732;2023-12-20T15:15:11;8.07;;;4.87;;
8001;SDS011;4046;48.774;8.732;2023-12-20T15:17:37;9.00;;;7.17;;
8001;SDS011;4046;48.774;8.732;2023-12-20T15:20:12;9.17;;;7.87;;
8001;SDS011;4046;48.774;8.732;2023-12-20T15:22:39;10.47;;;7.87;;
8001;SDS011;4046;48.774;8.732;2023-12-20T15:25:06;13.30;;;7.97;;
8001;SDS011;4046;48.774;8.732;2023-12-20T15:27:36;17.13;;;12.83;;
8001;SDS011;4046;48.774;8.732;2023-12-20T15:30:28;25.20;;;17.17;;
8001;SDS011;4046;48.774;8.732;2023-12-20T15:32:55;24.57;;;17.90;;
8001;SDS011;4046;48.774;8.732;2023-12-20T15:35:21;30.30;;;19.23;;
8001;SDS011;4046;48.774;8.732;2023-12-20T15:37:47;25.33;;;18.77;;
8001;SDS011;4046;48.774;8.732;2023-12-20T15:40:23;29.03;;;20.27;;
8001;SDS011;4046;48.774;8.732;2023-12-20T15:42:56;31.60;;;20.00;;
8001;SDS011;4046;48.774;8.732;2023-12-20T15:45:30;26.47;;;18.73;;
8001;SDS011;4046;48.774;8.732;2023-12-20T15:48:44;25.13;;;17.47;;
8001;SDS011;4046;48.774;8.732;2023-12-20T15:51:43;24.00;;;18.50;;
8001;SDS011;4046;48.774;8.732;2023-12-20T15:54:09;25.60;;;17.30;;
8001;SDS011;4046;48.774;8.732;2023-12-20T15:56:39;23.40;;;17.43;;
8001;SDS011;4046;48.774;8.732;2023-12-20T16:01:47;22.90;;;16.50;;
8001;SDS011;4046;48.774;8.732;2023-12-20T16:04:30;21.53;;;16.40;;
8001;SDS011;4046;48.774;8.732;2023-12-20T16:07:39;22.47;;;16.50;;
8001;SDS011;4046;48.774;8.732;2023-12-20T16:10:51;19.20;;;15.23;;
8001;SDS011;4046;48.774;8.732;2023-12-20T16:13:03;21.47;;;14.43;;
8001;SDS011;4046;48.774;8.732;2023-12-20T16:15:29;19.97;;;15.00;;
8001;SDS011;4046;48.774;8.732;2023-12-20T16:21:09;19.77;;;13.40;;
8001;SDS011;4046;48.774;8.732;2023-12-20T16:23:36;22.93;;;13.97;;
8001;SDS011;4046;48.774;8.732;2023-12-20T16:26:02;22.23;;;13.83;;
8001;SDS011;4046;48.774;8.732;2023-12-20T16:28:28;17.10;;;13.10;;
8001;SDS011;4046;48.774;8.732;2023-12-20T16:30:54;18.63;;;13.77;;
8001;SDS011;4046;48.774;8.732;2023-12-20T16:33:22;21.10;;;13.43;;
8001;SDS011;4046;48.774;8.732;2023-12-20T16:35:48;20.17;;;12.77;;
8001;SDS011;4046;48.774;8.732;2023-12-20T16:38:15;16.40;;;12.27;;
8001;SDS011;4046;48.774;8.732;2023-12-20T16:40:40;17.70;;;12.63;;
8001;SDS011;4046;48.774;8.732;2023-12-20T16:43:09;14.23;;;11.90;;
8001;SDS011;4046;48.774;8.732;2023-12-20T16:45:38;16.30;;;12.23;;
8001;SDS011;4046;48.774;8.732;2023-12-20T16:48:04;15.57;;;11.97;;
8001;SDS011;4046;48.774;8.732;2023-12-20T16:50:30;15.20;;;11.63;;
8001;SDS011;4046;48.774;8.732;2023-12-20T16:52:57;14.10;;;10.53;;
8001;SDS011;4046;48.774;8.732;2023-12-20T16:55:23;13.93;;;10.70;;
8001;SDS011;4046;48.774;8.732;2023-12-20T16:57:49;15.83;;;10.77;;
8001;SDS011;4046;48.774;8.732;2023-12-20T17:00:15;20.03;;;11.43;;
8001;SDS011;4046;48.774;8.732;2023-12-20T17:02:41;15.77;;;10.70;;
8001;SDS011;4046;48.774;8.732;2023-12-20T17:05:08;14.90;;;10.47;;
8001;SDS011;4046;48.774;8.732;2023-12-20T17:07:44;14.20;;;10.07;;
8001;SDS011;4046;48.774;8.732;2023-12-20T17:10:10;13.50;;;10.43;;
8001;SDS011;4046;48.774;8.732;2023-12-20T17:12:35;11.63;;;10.13;;
8001;SDS011;4046;48.774;8.732;2023-12-20T17:21:30;10.53;;;8.87;;
8001;SDS011;4046;48.774;8.732;2023-12-20T17:23:56;11.60;;;9.97;;
8001;SDS011;4046;48.774;8.732;2023-12-20T17:26:22;12.00;;;10.07;;
8001;SDS011;4046;48.774;8.732;2023-12-20T17:28:48;11.60;;;8.70;;
8001;SDS011;4046;48.774;8.732;2023-12-20T17:31:14;13.60;;;8.87;;